createdAt,value
2018-07-17T00:00:12.244Z,69.10
2018-07-17T00:02:40.518Z,69.50
2018-07-17T00:05:09.325Z,70.10
2018-07-17T00:07:37.711Z,70.50
2018-07-17T00:10:06.190Z,71.10
2018-07-17T00:12:34.272Z,71.20
2018-07-17T00:15:02.626Z,71.30
2018-07-17T00:17:30.712Z,71.50
2018-07-17T00:19:58.782Z,71.90
2018-07-17T00:22:26.866Z,71.90
2018-07-17T00:24:54.930Z,72.10
2018-07-17T00:27:23.015Z,72.70
2018-07-17T00:29:51.090Z,73.40
2018-07-17T00:32:19.150Z,73.70
2018-07-17T00:34:47.226Z,73.90
2018-07-17T00:37:15.313Z,74.30
2018-07-17T00:39:43.492Z,74.80
2018-07-17T00:42:11.734Z,75.20
2018-07-17T00:44:39.860Z,75.40
2018-07-17T00:47:07.947Z,75.70
2018-07-17T00:49:36.012Z,75.80
2018-07-17T00:52:04.083Z,76.20
2018-07-17T00:54:32.198Z,76.10
2018-07-17T00:57:00.278Z,76.20
2018-07-17T00:59:28.350Z,75.70
2018-07-17T01:02:01.910Z,75.00
2018-07-17T01:04:35.830Z,74.50
2018-07-17T01:07:09.353Z,73.90
2018-07-17T01:09:42.845Z,73.60
2018-07-17T01:12:13.205Z,73.30
2018-07-17T01:14:46.646Z,73.10
2018-07-17T01:17:15.355Z,73.20
2018-07-17T01:19:43.428Z,73.20
2018-07-17T01:22:11.522Z,73.30
2018-07-17T01:24:39.632Z,73.20
2018-07-17T01:27:07.699Z,73.30
2018-07-17T01:29:35.803Z,73.50
2018-07-17T01:32:04.102Z,73.40
2018-07-17T01:34:32.366Z,73.50
2018-07-17T01:37:00.473Z,73.80
2018-07-17T01:39:28.550Z,74.40
2018-07-17T01:41:56.634Z,75.10
2018-07-17T01:44:25.148Z,75.70
2018-07-17T01:46:53.218Z,76.30
2018-07-17T01:49:21.326Z,76.80
2018-07-17T01:51:49.417Z,77.20
2018-07-17T01:54:17.490Z,78.20
2018-07-17T01:56:45.577Z,77.70
2018-07-17T01:59:13.648Z,79.10
2018-07-17T02:04:09.647Z,79.00
2018-07-17T02:06:38.011Z,78.90
2018-07-17T02:09:06.118Z,78.70
2018-07-17T02:11:34.191Z,78.80
2018-07-17T02:14:02.272Z,78.70
2018-07-17T02:16:30.375Z,78.80
2018-07-17T02:18:58.430Z,78.80
2018-07-17T02:21:26.848Z,78.60
2018-07-17T02:23:54.981Z,78.90
2018-07-17T02:26:23.088Z,78.70
2018-07-17T02:28:51.471Z,78.60
2018-07-17T02:31:19.558Z,78.30
2018-07-17T02:33:47.626Z,78.20
2018-07-17T02:36:15.708Z,78.10
2018-07-17T02:38:43.781Z,78.10
2018-07-17T02:41:11.859Z,78.60
2018-07-17T02:43:40.245Z,78.70
2018-07-17T02:46:08.342Z,78.90
2018-07-17T02:48:36.473Z,79.00
2018-07-17T02:51:04.558Z,79.10
2018-07-17T02:53:32.629Z,79.10
2018-07-17T02:56:00.728Z,79.20
2018-07-17T02:58:29.045Z,79.20
2018-07-17T03:00:57.136Z,79.50
2018-07-17T03:03:25.230Z,79.80
2018-07-17T03:05:53.557Z,80.10
2018-07-17T03:08:21.626Z,81.00
2018-07-17T03:10:49.699Z,81.10
2018-07-17T03:13:18.098Z,80.40
2018-07-17T03:15:46.168Z,80.40
2018-07-17T03:18:14.253Z,80.10
2018-07-17T03:20:42.335Z,80.30
2018-07-17T03:23:10.414Z,80.20
2018-07-17T03:25:38.531Z,80.00
2018-07-17T03:28:07.243Z,79.90
2018-07-17T03:30:35.322Z,79.80
2018-07-17T03:33:03.386Z,79.60
2018-07-17T03:35:31.498Z,79.50
2018-07-17T03:37:59.572Z,79.50
2018-07-17T03:40:27.654Z,79.40
2018-07-17T03:45:23.878Z,79.70
2018-07-17T03:47:51.960Z,80.20
2018-07-17T03:50:20.398Z,79.50
2018-07-17T03:52:48.493Z,79.30
2018-07-17T03:55:16.560Z,79.40
2018-07-17T03:57:44.938Z,79.20
2018-07-17T04:00:13.027Z,79.50
2018-07-17T04:02:41.152Z,79.50
2018-07-17T04:05:09.242Z,79.50
2018-07-17T04:07:37.357Z,79.40
2018-07-17T04:10:05.450Z,79.30
2018-07-17T04:12:33.814Z,79.30
2018-07-17T04:15:01.940Z,79.30
2018-07-17T04:17:30.023Z,79.30
2018-07-17T04:19:58.355Z,79.20
2018-07-17T04:22:26.477Z,79.20
2018-07-17T04:24:54.562Z,79.20
2018-07-17T04:27:22.678Z,79.10
2018-07-17T04:29:50.916Z,79.00
2018-07-17T04:32:19.025Z,79.00
2018-07-17T04:34:47.202Z,79.10
2018-07-17T04:37:15.288Z,80.00
2018-07-17T04:39:43.365Z,79.80
2018-07-17T04:42:12.462Z,79.60
2018-07-17T04:44:40.542Z,79.40
2018-07-17T04:47:08.633Z,79.20
2018-07-17T04:49:36.697Z,79.10
2018-07-17T04:52:04.758Z,79.10
2018-07-17T04:54:32.838Z,79.20
2018-07-17T04:57:01.196Z,79.50
2018-07-17T04:59:29.273Z,79.80
2018-07-17T05:01:57.415Z,79.90
2018-07-17T05:04:25.746Z,80.10
2018-07-17T05:06:53.831Z,80.00
2018-07-17T05:09:21.904Z,79.90
2018-07-17T05:11:50.294Z,79.90
2018-07-17T05:14:18.386Z,79.80
2018-07-17T05:16:46.464Z,80.00
2018-07-17T05:19:14.593Z,79.80
2018-07-17T05:21:42.770Z,80.20
2018-07-17T05:24:10.850Z,80.00
2018-07-17T05:26:38.944Z,79.80
2018-07-17T05:29:07.193Z,79.70
2018-07-17T05:31:35.264Z,79.70
2018-07-17T05:34:03.353Z,79.70
2018-07-17T05:36:31.461Z,79.80
2018-07-17T05:38:59.555Z,79.90
2018-07-17T05:41:27.626Z,80.00
2018-07-17T05:43:55.745Z,79.80
2018-07-17T05:46:23.956Z,79.80
2018-07-17T05:48:51.994Z,79.50
2018-07-17T05:51:20.055Z,79.50
2018-07-17T05:53:48.151Z,79.30
2018-07-17T05:56:16.602Z,79.10
2018-07-17T05:58:44.687Z,78.60
2018-07-17T06:01:12.758Z,78.10
2018-07-17T06:03:40.875Z,77.20
2018-07-17T06:06:08.963Z,76.60
2018-07-17T06:08:37.090Z,75.70
2018-07-17T06:11:05.639Z,75.30
2018-07-17T06:13:33.715Z,74.70
2018-07-17T06:16:01.807Z,74.40
2018-07-17T06:18:29.915Z,74.30
2018-07-17T06:20:58.086Z,74.00
2018-07-17T06:23:26.151Z,73.60
2018-07-17T06:25:54.246Z,73.30
2018-07-17T06:28:22.344Z,73.20
2018-07-17T06:30:50.907Z,73.10
2018-07-17T06:33:19.509Z,72.90
2018-07-17T06:35:47.648Z,72.60
2018-07-17T06:38:15.732Z,72.30
2018-07-17T06:40:43.856Z,72.10
2018-07-17T06:43:11.969Z,72.20
2018-07-17T06:45:40.121Z,72.10
2018-07-17T06:48:08.607Z,72.00
2018-07-17T06:50:36.768Z,71.90
2018-07-17T06:53:04.731Z,71.70
2018-07-17T06:55:32.830Z,71.30
2018-07-17T07:00:28.903Z,70.60
2018-07-17T07:02:57.300Z,70.10
2018-07-17T07:05:25.366Z,69.80
2018-07-17T07:07:53.498Z,69.50
2018-07-17T07:10:21.925Z,69.30
2018-07-17T07:12:50.037Z,68.70
2018-07-17T07:15:18.110Z,68.50
2018-07-17T07:17:46.178Z,68.50
2018-07-17T07:20:14.250Z,67.80
2018-07-17T07:22:42.508Z,67.60
2018-07-17T07:25:10.863Z,66.70
2018-07-17T07:27:39.002Z,67.10
2018-07-17T07:30:07.111Z,66.00
2018-07-17T07:32:35.476Z,66.40
2018-07-17T07:35:03.578Z,67.30
2018-07-17T07:37:31.627Z,65.90
2018-07-17T07:39:59.723Z,65.50
2018-07-17T07:42:27.802Z,65.30
2018-07-17T07:44:55.937Z,64.60
2018-07-17T07:47:24.322Z,64.20
2018-07-17T07:49:52.394Z,64.10
2018-07-17T07:52:20.461Z,64.20
2018-07-17T07:54:48.816Z,64.20
2018-07-17T07:57:16.890Z,63.50
2018-07-17T07:59:44.973Z,63.40
2018-07-17T08:02:13.042Z,62.60
2018-07-17T08:04:41.149Z,62.80
2018-07-17T08:07:09.251Z,62.00
2018-07-17T08:12:05.365Z,61.70
2018-07-17T08:14:33.383Z,62.10
2018-07-17T08:17:01.472Z,62.70
2018-07-17T08:19:29.662Z,61.30
2018-07-17T08:21:57.726Z,60.90
2018-07-17T08:24:25.911Z,60.70
2018-07-17T08:26:53.883Z,61.00
2018-07-17T08:29:21.961Z,60.60
2018-07-17T08:31:50.051Z,60.70
2018-07-17T08:34:18.187Z,60.70
2018-07-17T08:36:46.375Z,60.90
2018-07-17T08:39:14.459Z,60.70
2018-07-17T08:41:42.547Z,60.50
2018-07-17T08:44:10.652Z,60.60
2018-07-17T08:46:39.088Z,60.60
2018-07-17T08:49:07.222Z,60.60
2018-07-17T08:51:35.459Z,60.90
2018-07-17T08:54:03.867Z,61.40
2018-07-17T08:56:32.048Z,62.20
2018-07-17T08:59:00.179Z,61.30
2018-07-17T09:01:28.650Z,61.30
2018-07-17T09:03:56.772Z,61.10
2018-07-17T09:06:24.875Z,60.80
2018-07-17T09:08:53.239Z,60.90
2018-07-17T09:11:21.347Z,61.10
2018-07-17T09:13:49.448Z,61.40
2018-07-17T09:16:17.539Z,61.40
2018-07-17T09:18:45.643Z,61.00
2018-07-17T09:21:13.767Z,61.00
2018-07-17T09:26:09.785Z,60.30
2018-07-17T09:28:37.924Z,60.10
2018-07-17T09:31:06.491Z,59.90
2018-07-17T09:33:34.765Z,60.30
2018-07-17T09:36:03.911Z,60.60
2018-07-17T09:38:31.998Z,60.60
2018-07-17T09:41:00.091Z,60.50
2018-07-17T09:43:28.195Z,60.70
2018-07-17T09:45:56.590Z,60.80
2018-07-17T09:48:24.714Z,61.10
2018-07-17T09:50:52.850Z,61.30
2018-07-17T09:53:20.942Z,61.10
2018-07-17T09:55:49.015Z,60.90
2018-07-17T09:58:17.109Z,60.80
2018-07-17T10:01:51.590Z,60.80
2018-07-17T10:04:19.700Z,60.90
2018-07-17T10:06:48.154Z,61.10
2018-07-17T10:09:16.238Z,61.10
2018-07-17T10:11:44.388Z,60.40
2018-07-17T10:14:12.552Z,60.00
2018-07-17T10:16:41.084Z,60.30
2018-07-17T10:19:09.186Z,60.60
2018-07-17T10:21:37.384Z,60.10
2018-07-17T10:24:05.862Z,59.80
2018-07-17T10:26:33.956Z,59.60
2018-07-17T10:29:02.032Z,59.30
2018-07-17T10:31:30.354Z,58.70
2018-07-17T10:33:58.462Z,57.40
2018-07-17T10:36:26.598Z,57.00
2018-07-17T10:38:54.809Z,56.70
2018-07-17T10:41:22.878Z,56.20
2018-07-17T10:43:50.963Z,55.70
2018-07-17T10:46:19.439Z,55.20
2018-07-17T10:48:47.534Z,54.90
2018-07-17T10:51:15.609Z,54.70
2018-07-17T10:53:43.973Z,53.80
2018-07-17T10:56:12.051Z,52.90
2018-07-17T10:58:40.180Z,53.00
2018-07-17T11:01:08.613Z,52.70
2018-07-17T11:03:36.694Z,52.90
2018-07-17T11:06:04.951Z,53.10
2018-07-17T11:08:33.449Z,53.70
2018-07-17T11:11:01.817Z,53.60
2018-07-17T11:13:29.927Z,53.70
2018-07-17T11:15:58.351Z,53.50
2018-07-17T11:18:26.423Z,53.50
2018-07-17T11:20:54.532Z,51.80
2018-07-17T11:25:50.771Z,52.80
2018-07-17T11:28:18.842Z,51.70
2018-07-17T11:30:47.199Z,51.00
2018-07-17T11:33:15.278Z,50.70
2018-07-17T11:35:43.420Z,50.60
2018-07-17T11:38:11.819Z,50.80
2018-07-17T11:40:39.972Z,51.20
2018-07-17T11:43:08.073Z,50.90
2018-07-17T11:45:36.552Z,50.80
2018-07-17T11:48:04.833Z,50.50
2018-07-17T11:50:33.005Z,50.00
2018-07-17T11:53:01.464Z,49.50
2018-07-17T11:55:29.578Z,49.80
2018-07-17T12:00:25.538Z,50.20
2018-07-17T12:02:53.603Z,49.90
2018-07-17T12:07:49.830Z,50.10
2018-07-17T12:10:17.910Z,49.50
2018-07-17T12:17:41.907Z,48.80
2018-07-17T12:20:10.102Z,48.40
2018-07-17T12:25:06.263Z,46.90
2018-07-17T12:27:35.153Z,46.80
2018-07-17T12:30:03.443Z,46.70
2018-07-17T12:32:31.536Z,46.30
2018-07-17T12:34:59.738Z,45.70
2018-07-17T12:37:27.982Z,46.30
2018-07-17T12:39:56.109Z,47.20
2018-07-17T12:44:52.549Z,48.50
2018-07-17T12:47:20.738Z,48.10
2018-07-17T12:49:48.886Z,47.80
2018-07-17T12:52:17.006Z,47.50
2018-07-17T12:54:45.083Z,47.60
2018-07-17T12:57:13.151Z,48.30
2018-07-17T12:59:41.554Z,48.80
2018-07-17T13:02:09.657Z,48.60
2018-07-17T13:04:37.730Z,48.20
2018-07-17T13:07:06.104Z,47.90
2018-07-17T13:09:34.182Z,47.80
2018-07-17T13:12:02.284Z,47.30
2018-07-17T13:14:30.726Z,47.50
2018-07-17T13:16:58.806Z,47.10
2018-07-17T13:19:26.887Z,47.10
2018-07-17T13:21:54.968Z,47.20
2018-07-17T13:24:23.052Z,46.80
2018-07-17T13:26:51.136Z,46.20
2018-07-17T13:29:19.643Z,45.70
2018-07-17T13:31:47.995Z,43.60
2018-07-17T13:34:16.084Z,43.10
2018-07-17T13:36:44.206Z,43.40
2018-07-17T13:39:12.987Z,43.00
2018-07-17T13:41:41.360Z,41.80
2018-07-17T13:44:09.776Z,42.10
2018-07-17T13:46:37.964Z,41.90
2018-07-17T13:49:06.072Z,42.10
2018-07-17T13:51:34.457Z,42.10
2018-07-17T13:54:02.812Z,42.40
2018-07-17T13:56:30.882Z,43.00
2018-07-17T13:58:59.278Z,43.60
2018-07-17T14:01:27.383Z,44.00
2018-07-17T14:03:55.594Z,44.20
2018-07-17T14:06:23.742Z,43.90
2018-07-17T14:08:51.838Z,43.80
2018-07-17T14:11:19.954Z,43.40
2018-07-17T14:13:48.306Z,43.30
2018-07-17T14:16:16.754Z,43.10
2018-07-17T14:18:44.842Z,43.00
2018-07-17T14:21:12.898Z,43.30
2018-07-17T14:23:41.029Z,44.20
2018-07-17T14:26:09.175Z,44.10
2018-07-17T14:28:37.374Z,43.10
2018-07-17T14:31:05.676Z,43.20
2018-07-17T14:33:34.149Z,43.40
2018-07-17T14:36:02.247Z,43.20
2018-07-17T14:40:58.242Z,43.00
2018-07-17T14:43:26.907Z,42.70
2018-07-17T14:45:54.982Z,42.10
2018-07-17T14:48:23.092Z,41.70
2018-07-17T14:50:51.535Z,41.40
2018-07-17T14:53:19.607Z,41.00
2018-07-17T14:55:47.697Z,41.10
2018-07-17T14:58:16.363Z,40.70
2018-07-17T15:00:44.415Z,40.40
2018-07-17T15:03:12.503Z,40.60
2018-07-17T15:05:41.527Z,40.40
2018-07-17T15:08:09.599Z,40.30
2018-07-17T15:10:37.720Z,40.00
2018-07-17T15:13:06.332Z,39.90
2018-07-17T15:15:34.626Z,39.20
2018-07-17T15:18:02.679Z,38.90
2018-07-17T15:20:31.060Z,38.40
2018-07-17T15:22:59.417Z,38.20
2018-07-17T15:25:28.439Z,38.30
2018-07-17T15:27:56.927Z,38.00
2018-07-17T15:30:24.906Z,37.90
2018-07-17T15:32:52.998Z,36.90
2018-07-17T15:37:48.954Z,36.30
2018-07-17T15:40:17.510Z,36.60
2018-07-17T15:42:45.827Z,36.70
2018-07-17T15:45:13.921Z,36.30
2018-07-17T15:47:42.375Z,35.50
2018-07-17T15:52:38.727Z,35.30
2018-07-17T15:55:06.790Z,34.80
2018-07-17T15:57:35.218Z,34.60
2018-07-17T16:00:03.278Z,34.20
2018-07-17T16:02:31.356Z,33.80
2018-07-17T16:04:59.856Z,33.90
2018-07-17T16:07:28.212Z,32.70
2018-07-17T16:09:56.345Z,32.20
2018-07-17T16:12:24.673Z,32.10
2018-07-17T16:14:52.787Z,32.80
2018-07-17T16:17:20.866Z,32.90
2018-07-17T16:19:48.942Z,32.90
2018-07-17T16:22:17.048Z,32.60
2018-07-17T16:24:45.099Z,32.00
2018-07-17T16:27:13.158Z,31.30
2018-07-17T16:32:09.142Z,30.20
2018-07-17T16:34:37.616Z,30.20
2018-07-17T16:37:05.704Z,29.50
2018-07-17T16:39:34.386Z,30.10
2018-07-17T16:42:02.760Z,29.20
2018-07-17T16:44:30.823Z,29.70
2018-07-17T16:46:58.880Z,30.20
2018-07-17T16:49:27.658Z,30.10
2018-07-17T16:51:55.739Z,30.20
2018-07-17T16:54:23.827Z,30.30
2018-07-17T16:56:52.210Z,30.50
2018-07-17T16:59:20.494Z,30.00
2018-07-17T17:01:48.658Z,30.00
2018-07-17T17:04:17.219Z,31.50
2018-07-17T17:06:45.329Z,33.20
2018-07-17T17:09:13.416Z,35.00
2018-07-17T17:11:41.978Z,36.40
2018-07-17T17:14:10.319Z,37.40
2018-07-17T17:16:38.456Z,38.50
2018-07-17T17:19:07.006Z,39.70
2018-07-17T17:21:35.077Z,40.90
2018-07-17T17:24:03.278Z,41.80
2018-07-17T17:26:31.534Z,42.70
2018-07-17T17:28:59.602Z,43.20
2018-07-17T17:31:27.674Z,43.70
2018-07-17T17:33:56.145Z,44.20
2018-07-17T17:36:24.210Z,44.30
2018-07-17T17:38:52.303Z,44.60
2018-07-17T17:41:20.782Z,44.80
2018-07-17T17:43:48.974Z,45.30
2018-07-17T17:46:17.093Z,45.50
2018-07-17T17:51:13.350Z,46.80
2018-07-17T17:53:42.028Z,46.80
2018-07-17T17:56:16.784Z,47.00
2018-07-17T17:58:45.214Z,47.50
2018-07-17T18:01:13.400Z,47.90
2018-07-17T18:03:42.135Z,48.20
2018-07-17T18:06:10.228Z,48.30
2018-07-17T18:08:38.450Z,48.40
2018-07-17T18:11:06.570Z,48.40
2018-07-17T18:13:34.760Z,48.60
2018-07-17T18:16:02.831Z,48.80
2018-07-17T18:18:31.001Z,49.00
2018-07-17T18:20:59.035Z,49.10
2018-07-17T18:23:27.108Z,49.50
2018-07-17T18:25:55.507Z,49.60
2018-07-17T18:28:23.574Z,50.20
2018-07-17T18:30:51.714Z,50.30
2018-07-17T18:33:19.815Z,50.50
2018-07-17T18:35:47.898Z,50.60
2018-07-17T18:38:15.948Z,50.90
2018-07-17T18:40:44.083Z,51.00
2018-07-17T18:43:12.232Z,51.60
2018-07-17T18:45:40.439Z,51.90
2018-07-17T18:48:08.907Z,52.10
2018-07-17T18:50:37.042Z,52.40
2018-07-17T18:53:05.136Z,52.80
2018-07-17T18:55:33.594Z,53.00
2018-07-17T18:58:01.691Z,53.10
2018-07-17T19:00:29.790Z,53.40
2018-07-17T19:05:26.261Z,53.90
2018-07-17T19:07:54.362Z,53.90
2018-07-17T19:10:22.746Z,54.10
2018-07-17T19:12:50.986Z,54.20
2018-07-17T19:15:19.110Z,54.50
2018-07-17T19:17:47.570Z,54.60
2018-07-17T19:20:15.646Z,54.90
2018-07-17T19:22:45.386Z,55.10
2018-07-17T19:25:13.914Z,55.90
2018-07-17T19:27:42.100Z,55.70
2018-07-17T19:30:10.266Z,55.90
2018-07-17T19:32:38.270Z,56.10
2018-07-17T19:35:06.436Z,56.80
2018-07-17T19:37:34.528Z,56.90
2018-07-17T19:40:02.990Z,57.10
2018-07-17T19:42:31.115Z,57.40
2018-07-17T19:47:27.394Z,57.80
2018-07-17T19:49:55.444Z,57.90
2018-07-17T19:52:23.546Z,58.90
2018-07-17T19:54:52.083Z,58.60
2018-07-17T19:57:20.135Z,58.70
2018-07-17T19:59:48.197Z,59.10
2018-07-17T20:02:16.270Z,59.10
2018-07-17T20:04:44.387Z,59.40
2018-07-17T20:07:12.473Z,59.60
2018-07-17T20:09:40.838Z,59.90
2018-07-17T20:14:37.026Z,60.60
2018-07-17T20:17:05.267Z,60.60
2018-07-17T20:19:33.582Z,61.30
2018-07-17T20:22:01.986Z,61.20
2018-07-17T20:24:30.335Z,61.30
2018-07-17T20:26:58.672Z,61.60
2018-07-17T20:29:26.772Z,61.70
2018-07-17T20:31:55.178Z,61.80
2018-07-17T20:34:23.238Z,61.90
2018-07-17T20:36:51.331Z,62.10
2018-07-17T20:39:19.723Z,62.20
2018-07-17T20:41:47.785Z,62.20
2018-07-17T20:44:15.863Z,63.10
2018-07-17T20:46:44.132Z,62.50
2018-07-17T20:49:12.214Z,62.80
2018-07-17T20:51:40.319Z,62.90
2018-07-17T20:54:08.837Z,63.10
2018-07-17T20:56:36.926Z,63.40
2018-07-17T20:59:05.259Z,63.60
2018-07-17T21:01:33.336Z,63.60
2018-07-17T21:04:01.853Z,63.80
2018-07-17T21:06:30.258Z,64.00
2018-07-17T21:08:58.376Z,64.20
2018-07-17T21:11:26.451Z,64.30
2018-07-17T21:13:54.546Z,64.40
2018-07-17T21:16:22.615Z,64.60
2018-07-17T21:18:50.868Z,64.70
2018-07-17T21:21:18.947Z,64.80
2018-07-17T21:23:47.551Z,65.10
2018-07-17T21:26:16.954Z,65.30
2018-07-17T21:28:45.893Z,65.40
2018-07-17T21:31:15.003Z,65.60
2018-07-17T21:38:39.859Z,66.80
2018-07-17T21:41:07.968Z,66.70
2018-07-17T21:43:36.074Z,66.80
2018-07-17T21:46:04.439Z,67.10
2018-07-17T21:48:32.523Z,66.90
2018-07-17T21:51:00.608Z,67.20
2018-07-17T21:53:29.014Z,67.60
2018-07-17T21:55:57.160Z,67.70
2018-07-17T21:58:25.218Z,67.90
2018-07-17T22:00:53.955Z,68.20
2018-07-17T22:03:22.546Z,68.40
2018-07-17T22:05:50.755Z,68.40
2018-07-17T22:08:19.282Z,68.50
2018-07-17T22:10:47.373Z,69.20
2018-07-17T22:13:15.571Z,68.30
2018-07-17T22:15:43.842Z,69.20
2018-07-17T22:18:12.080Z,69.20
2018-07-17T22:20:40.146Z,70.50
2018-07-17T22:23:08.520Z,69.60
2018-07-17T22:25:36.683Z,69.60
2018-07-17T22:28:05.070Z,69.70
2018-07-17T22:30:33.467Z,70.00
2018-07-17T22:33:01.603Z,70.10
2018-07-17T22:35:30.004Z,70.10
2018-07-17T22:37:58.515Z,70.30
2018-07-17T22:40:26.683Z,70.90
2018-07-17T22:42:54.957Z,71.50
2018-07-17T22:45:23.335Z,71.70
2018-07-17T22:47:51.469Z,71.80
2018-07-17T22:50:19.757Z,71.90
2018-07-17T22:52:47.842Z,72.00
2018-07-17T22:55:16.166Z,72.90
2018-07-17T22:57:44.250Z,73.30
2018-07-17T23:00:12.699Z,73.00
2018-07-17T23:05:08.694Z,72.90
2018-07-17T23:07:37.013Z,73.40
2018-07-17T23:10:05.127Z,73.60
2018-07-17T23:12:33.226Z,73.90
2018-07-17T23:15:01.606Z,74.20
2018-07-17T23:17:29.688Z,74.50
2018-07-17T23:19:57.750Z,74.60
2018-07-17T23:22:33.169Z,74.80
2018-07-17T23:25:01.227Z,74.90
2018-07-17T23:27:29.302Z,75.20
2018-07-17T23:29:57.618Z,75.70
2018-07-17T23:32:25.733Z,76.00
2018-07-17T23:34:53.821Z,76.20
2018-07-17T23:37:21.934Z,76.10
2018-07-17T23:39:50.007Z,76.80
2018-07-17T23:42:18.078Z,76.30
2018-07-17T23:44:46.454Z,76.30
2018-07-17T23:47:14.555Z,76.30
2018-07-17T23:49:43.534Z,76.20
2018-07-17T23:52:11.690Z,76.30
2018-07-17T23:54:39.782Z,76.30
2018-07-17T23:57:07.848Z,76.40
2018-07-17T23:59:36.223Z,76.50
